Pagina principale
METAR-TAF:

METAR-TAF

Aeroporti :

Trapani, Italia

Aeroporto di Trapani-Birgi

latitudine: 37-55N, longitudine: 012-30E, altezza: 7 m

Osservazione

Il bollettino è stato emesso 49 minuti fa, alle 05:55 UTC
Vento 16 kt da ovest/nord-ovest
Temperature 24°C
Umidità 74%
Pressione 1008 hPa
Visibilità 10 km o più
Poco nuvoloso ad un'altezza di 2000 ft
Nubi sparse ad un'altezza di 3000 ft

METAR: LICT 260555Z 29016KT 9999 FEW020 SCT030 24/19 Q1008 RMK SCT VIS MIN 9999 WIND THR13 29015KT BLU

Ora: 08:44 (06:44 UTC)

Previsione

Il bollettino è stato emesso 16 ore e 44 minuti fa, alle 14:00 UTC
Previsione valida dal 25 alle 15 UTC al 25 alle 24 UTC
Vento 15 kt da ovest/nord-ovest
Visibilità 10 km o più
Nubi sparse ad un'altezza di 2000 ft

TAF: LICT 251400Z 2515/2524 30015KT 9999 SCT020

Osservazioni e previsioni meteorologiche di più di 4000 aeroporti (messaggi METAR e TAF).

Le stazioni disponibili sono rappresentate dai dischi gialli e rossi sulla carta.

Puntare il mouse per vedere il nome della stazione.

Clicca sopra per visualizzare le osservazioni e previsioni meteorologiche.

Per cambiare la mappa : fare clic sui pulsanti verdi con una croce nera per ingrandire, il pulsante verde con un trattino per diminuire, o sulla freccia verde per le mappe adiacenti.


METAR-TAF: